sensor_id;sensor_type;location;lat;lon;timestamp;temperature;humidity
63537;DHT22;49686;51.880;5.632;2023-05-10T00:02:13;10.60;99.90
63537;DHT22;49686;51.880;5.632;2023-05-10T00:04:39;10.50;99.90
63537;DHT22;49686;51.880;5.632;2023-05-10T00:07:06;10.60;99.90
63537;DHT22;49686;51.880;5.632;2023-05-10T00:09:33;10.50;99.90
63537;DHT22;49686;51.880;5.632;2023-05-10T00:12:00;10.50;99.90
63537;DHT22;49686;51.880;5.632;2023-05-10T00:14:28;10.50;99.90
63537;DHT22;49686;51.880;5.632;2023-05-10T00:16:55;10.50;99.90
63537;DHT22;49686;51.880;5.632;2023-05-10T00:19:24;10.50;99.90
63537;DHT22;49686;51.880;5.632;2023-05-10T00:21:54;10.50;99.90
63537;DHT22;49686;51.880;5.632;2023-05-10T00:24:21;10.50;99.90
63537;DHT22;49686;51.880;5.632;2023-05-10T00:26:48;10.50;99.90
63537;DHT22;49686;51.880;5.632;2023-05-10T00:29:14;10.40;99.90
63537;DHT22;49686;51.880;5.632;2023-05-10T00:31:43;10.50;99.90
63537;DHT22;49686;51.880;5.632;2023-05-10T00:34:09;10.40;99.90
63537;DHT22;49686;51.880;5.632;2023-05-10T00:36:39;10.50;99.90
63537;DHT22;49686;51.880;5.632;2023-05-10T00:39:11;10.50;99.90
63537;DHT22;49686;51.880;5.632;2023-05-10T00:41:38;10.50;99.90
63537;DHT22;49686;51.880;5.632;2023-05-10T00:44:05;10.50;99.90
63537;DHT22;49686;51.880;5.632;2023-05-10T00:46:32;10.50;99.90
63537;DHT22;49686;51.880;5.632;2023-05-10T00:49:01;10.50;99.90
63537;DHT22;49686;51.880;5.632;2023-05-10T00:51:28;10.60;99.90
63537;DHT22;49686;51.880;5.632;2023-05-10T00:53:55;10.50;99.90
63537;DHT22;49686;51.880;5.632;2023-05-10T00:56:21;10.60;99.90
63537;DHT22;49686;51.880;5.632;2023-05-10T00:58:48;10.50;99.90
63537;DHT22;49686;51.880;5.632;2023-05-10T01:01:15;10.50;99.90
63537;DHT22;49686;51.880;5.632;2023-05-10T01:03:42;10.50;99.90
63537;DHT22;49686;51.880;5.632;2023-05-10T01:06:11;10.50;99.90
63537;DHT22;49686;51.880;5.632;2023-05-10T01:08:38;10.50;99.90
63537;DHT22;49686;51.880;5.632;2023-05-10T01:11:05;10.50;99.90
63537;DHT22;49686;51.880;5.632;2023-05-10T01:13:34;10.60;99.90
63537;DHT22;49686;51.880;5.632;2023-05-10T01:16:02;10.60;99.90
63537;DHT22;49686;51.880;5.632;2023-05-10T01:18:30;10.60;99.90
63537;DHT22;49686;51.880;5.632;2023-05-10T01:21:07;10.60;99.90
63537;DHT22;49686;51.880;5.632;2023-05-10T01:23:52;10.60;99.90
63537;DHT22;49686;51.880;5.632;2023-05-10T01:29:23;10.60;99.90
63537;DHT22;49686;51.880;5.632;2023-05-10T01:32:20;10.60;99.90
63537;DHT22;49686;51.880;5.632;2023-05-10T01:34:56;10.70;99.90
63537;DHT22;49686;51.880;5.632;2023-05-10T01:37:31;10.60;99.90
63537;DHT22;49686;51.880;5.632;2023-05-10T01:40:04;10.60;99.90
63537;DHT22;49686;51.880;5.632;2023-05-10T01:42:39;10.60;99.90
63537;DHT22;49686;51.880;5.632;2023-05-10T01:45:11;10.60;99.90
63537;DHT22;49686;51.880;5.632;2023-05-10T01:47:43;10.60;99.90
63537;DHT22;49686;51.880;5.632;2023-05-10T01:50:13;10.60;99.90
63537;DHT22;49686;51.880;5.632;2023-05-10T01:52:42;10.60;99.90
63537;DHT22;49686;51.880;5.632;2023-05-10T01:55:11;10.60;99.90
63537;DHT22;49686;51.880;5.632;2023-05-10T01:57:40;10.60;99.90
63537;DHT22;49686;51.880;5.632;2023-05-10T02:00:10;10.50;99.90
63537;DHT22;49686;51.880;5.632;2023-05-10T02:02:38;10.40;99.90
63537;DHT22;49686;51.880;5.632;2023-05-10T02:05:08;10.30;99.90
63537;DHT22;49686;51.880;5.632;2023-05-10T02:07:36;10.30;99.90
63537;DHT22;49686;51.880;5.632;2023-05-10T02:10:06;10.20;99.90
63537;DHT22;49686;51.880;5.632;2023-05-10T02:12:36;10.30;99.90
63537;DHT22;49686;51.880;5.632;2023-05-10T02:15:05;10.20;99.90
63537;DHT22;49686;51.880;5.632;2023-05-10T02:17:34;10.10;99.90
63537;DHT22;49686;51.880;5.632;2023-05-10T02:20:02;10.10;99.90
63537;DHT22;49686;51.880;5.632;2023-05-10T02:22:31;10.10;99.90
63537;DHT22;49686;51.880;5.632;2023-05-10T02:25:03;10.10;99.90
63537;DHT22;49686;51.880;5.632;2023-05-10T02:27:30;10.00;99.90
63537;DHT22;49686;51.880;5.632;2023-05-10T02:30:03;10.00;99.90
63537;DHT22;49686;51.880;5.632;2023-05-10T02:32:34;10.00;99.90
63537;DHT22;49686;51.880;5.632;2023-05-10T02:35:03;10.00;99.90
63537;DHT22;49686;51.880;5.632;2023-05-10T02:37:31;9.90;99.90
63537;DHT22;49686;51.880;5.632;2023-05-10T02:39:59;9.90;99.90
63537;DHT22;49686;51.880;5.632;2023-05-10T02:42:27;9.90;99.90
63537;DHT22;49686;51.880;5.632;2023-05-10T02:45:04;9.90;99.90
63537;DHT22;49686;51.880;5.632;2023-05-10T02:47:31;9.90;99.90
63537;DHT22;49686;51.880;5.632;2023-05-10T02:49:59;9.90;99.90
63537;DHT22;49686;51.880;5.632;2023-05-10T02:52:29;9.90;99.90
63537;DHT22;49686;51.880;5.632;2023-05-10T02:55:00;9.90;99.90
63537;DHT22;49686;51.880;5.632;2023-05-10T02:57:41;9.90;99.90
63537;DHT22;49686;51.880;5.632;2023-05-10T03:00:10;9.90;99.90
63537;DHT22;49686;51.880;5.632;2023-05-10T03:02:40;9.90;99.90
63537;DHT22;49686;51.880;5.632;2023-05-10T03:05:08;9.90;99.90
63537;DHT22;49686;51.880;5.632;2023-05-10T03:07:37;10.00;99.90
63537;DHT22;49686;51.880;5.632;2023-05-10T03:10:06;9.90;99.90
63537;DHT22;49686;51.880;5.632;2023-05-10T03:12:47;10.00;99.90
63537;DHT22;49686;51.880;5.632;2023-05-10T03:15:22;10.00;99.90
63537;DHT22;49686;51.880;5.632;2023-05-10T03:17:55;10.00;99.90
63537;DHT22;49686;51.880;5.632;2023-05-10T03:20:25;10.00;99.90
63537;DHT22;49686;51.880;5.632;2023-05-10T03:22:55;10.00;99.90
63537;DHT22;49686;51.880;5.632;2023-05-10T03:25:29;10.00;99.90
63537;DHT22;49686;51.880;5.632;2023-05-10T03:27:58;10.00;99.90
63537;DHT22;49686;51.880;5.632;2023-05-10T03:30:27;10.00;99.90
63537;DHT22;49686;51.880;5.632;2023-05-10T03:32:54;10.00;99.90
63537;DHT22;49686;51.880;5.632;2023-05-10T03:35:21;10.00;99.90
63537;DHT22;49686;51.880;5.632;2023-05-10T03:37:48;10.10;99.90
63537;DHT22;49686;51.880;5.632;2023-05-10T03:40:14;10.10;99.90
63537;DHT22;49686;51.880;5.632;2023-05-10T03:42:43;10.10;99.90
63537;DHT22;49686;51.880;5.632;2023-05-10T03:45:10;10.10;99.90
63537;DHT22;49686;51.880;5.632;2023-05-10T03:47:37;10.10;99.90
63537;DHT22;49686;51.880;5.632;2023-05-10T03:50:05;10.10;99.90
63537;DHT22;49686;51.880;5.632;2023-05-10T03:52:32;10.10;99.90
63537;DHT22;49686;51.880;5.632;2023-05-10T03:54:58;10.10;99.90
63537;DHT22;49686;51.880;5.632;2023-05-10T03:57:25;10.10;99.90
63537;DHT22;49686;51.880;5.632;2023-05-10T03:59:53;10.20;99.90
63537;DHT22;49686;51.880;5.632;2023-05-10T04:02:20;10.20;99.90
63537;DHT22;49686;51.880;5.632;2023-05-10T04:04:47;10.20;99.90
63537;DHT22;49686;51.880;5.632;2023-05-10T04:07:13;10.20;99.90
63537;DHT22;49686;51.880;5.632;2023-05-10T04:09:41;10.20;99.90
63537;DHT22;49686;51.880;5.632;2023-05-10T04:12:07;10.20;99.90
63537;DHT22;49686;51.880;5.632;2023-05-10T04:14:36;10.20;99.90
63537;DHT22;49686;51.880;5.632;2023-05-10T04:17:04;10.20;99.90
63537;DHT22;49686;51.880;5.632;2023-05-10T04:19:31;10.20;99.90
63537;DHT22;49686;51.880;5.632;2023-05-10T04:22:02;10.20;99.90
63537;DHT22;49686;51.880;5.632;2023-05-10T04:24:29;10.20;99.90
63537;DHT22;49686;51.880;5.632;2023-05-10T04:26:55;10.20;99.90
63537;DHT22;49686;51.880;5.632;2023-05-10T04:29:23;10.20;99.90
63537;DHT22;49686;51.880;5.632;2023-05-10T04:31:50;10.20;99.90
63537;DHT22;49686;51.880;5.632;2023-05-10T04:34:20;10.20;99.90
63537;DHT22;49686;51.880;5.632;2023-05-10T04:36:47;10.20;99.90
63537;DHT22;49686;51.880;5.632;2023-05-10T04:39:13;10.30;99.90
63537;DHT22;49686;51.880;5.632;2023-05-10T04:41:40;10.30;99.90
63537;DHT22;49686;51.880;5.632;2023-05-10T04:44:10;10.30;99.90
63537;DHT22;49686;51.880;5.632;2023-05-10T04:46:37;10.30;99.90
63537;DHT22;49686;51.880;5.632;2023-05-10T04:49:04;10.30;99.90
63537;DHT22;49686;51.880;5.632;2023-05-10T04:51:32;10.30;99.90
63537;DHT22;49686;51.880;5.632;2023-05-10T04:53:58;10.30;99.90
63537;DHT22;49686;51.880;5.632;2023-05-10T04:56:32;10.30;99.90
63537;DHT22;49686;51.880;5.632;2023-05-10T04:58:59;10.40;99.90
63537;DHT22;49686;51.880;5.632;2023-05-10T05:01:26;10.40;99.90
63537;DHT22;49686;51.880;5.632;2023-05-10T05:03:53;10.40;99.90
63537;DHT22;49686;51.880;5.632;2023-05-10T05:06:20;10.40;99.90
63537;DHT22;49686;51.880;5.632;2023-05-10T05:08:48;10.40;99.90
63537;DHT22;49686;51.880;5.632;2023-05-10T05:11:15;10.50;99.90
63537;DHT22;49686;51.880;5.632;2023-05-10T05:13:42;10.60;99.90
63537;DHT22;49686;51.880;5.632;2023-05-10T05:16:08;10.60;99.90
63537;DHT22;49686;51.880;5.632;2023-05-10T05:18:35;10.60;99.90
63537;DHT22;49686;51.880;5.632;2023-05-10T05:21:02;10.50;99.90
63537;DHT22;49686;51.880;5.632;2023-05-10T05:23:29;10.60;99.90
63537;DHT22;49686;51.880;5.632;2023-05-10T05:25:58;10.70;99.90
63537;DHT22;49686;51.880;5.632;2023-05-10T05:28:24;10.70;99.90
63537;DHT22;49686;51.880;5.632;2023-05-10T05:30:53;10.60;99.90
63537;DHT22;49686;51.880;5.632;2023-05-10T05:33:20;10.60;99.90
63537;DHT22;49686;51.880;5.632;2023-05-10T05:35:47;10.60;99.90
63537;DHT22;49686;51.880;5.632;2023-05-10T05:38:14;10.60;99.90
63537;DHT22;49686;51.880;5.632;2023-05-10T05:40:40;10.70;99.90
63537;DHT22;49686;51.880;5.632;2023-05-10T05:43:08;10.70;99.90
63537;DHT22;49686;51.880;5.632;2023-05-10T05:45:35;10.80;99.90
63537;DHT22;49686;51.880;5.632;2023-05-10T05:48:02;10.80;99.90
63537;DHT22;49686;51.880;5.632;2023-05-10T05:50:30;10.80;99.90
63537;DHT22;49686;51.880;5.632;2023-05-10T05:52:57;10.80;99.90
63537;DHT22;49686;51.880;5.632;2023-05-10T05:55:27;10.80;99.90
63537;DHT22;49686;51.880;5.632;2023-05-10T05:57:53;10.70;99.90
63537;DHT22;49686;51.880;5.632;2023-05-10T06:00:22;10.70;99.90
63537;DHT22;49686;51.880;5.632;2023-05-10T06:02:48;10.70;99.90
63537;DHT22;49686;51.880;5.632;2023-05-10T06:05:15;10.70;99.90
63537;DHT22;49686;51.880;5.632;2023-05-10T06:07:49;10.80;99.90
63537;DHT22;49686;51.880;5.632;2023-05-10T06:10:16;10.80;99.90
63537;DHT22;49686;51.880;5.632;2023-05-10T06:12:42;10.90;99.90
63537;DHT22;49686;51.880;5.632;2023-05-10T06:15:10;11.10;99.90
63537;DHT22;49686;51.880;5.632;2023-05-10T06:17:38;11.20;99.90
63537;DHT22;49686;51.880;5.632;2023-05-10T06:20:06;11.10;99.90
63537;DHT22;49686;51.880;5.632;2023-05-10T06:22:33;11.00;99.90
63537;DHT22;49686;51.880;5.632;2023-05-10T06:25:00;11.00;99.90
63537;DHT22;49686;51.880;5.632;2023-05-10T06:27:29;10.90;99.90
63537;DHT22;49686;51.880;5.632;2023-05-10T06:29:56;10.90;99.90
63537;DHT22;49686;51.880;5.632;2023-05-10T06:32:39;10.90;99.90
63537;DHT22;49686;51.880;5.632;2023-05-10T06:35:07;11.00;99.90
63537;DHT22;49686;51.880;5.632;2023-05-10T06:37:37;10.90;99.90
63537;DHT22;49686;51.880;5.632;2023-05-10T06:40:05;10.90;99.90
63537;DHT22;49686;51.880;5.632;2023-05-10T06:42:32;10.80;99.90
63537;DHT22;49686;51.880;5.632;2023-05-10T06:44:58;10.80;99.90
63537;DHT22;49686;51.880;5.632;2023-05-10T06:47:25;10.70;99.90
63537;DHT22;49686;51.880;5.632;2023-05-10T06:49:53;10.70;99.90
63537;DHT22;49686;51.880;5.632;2023-05-10T06:52:20;10.60;99.90
63537;DHT22;49686;51.880;5.632;2023-05-10T06:54:47;10.60;99.90
63537;DHT22;49686;51.880;5.632;2023-05-10T06:57:14;10.60;99.90
63537;DHT22;49686;51.880;5.632;2023-05-10T06:59:56;10.60;99.90
63537;DHT22;49686;51.880;5.632;2023-05-10T07:02:23;10.60;99.90
63537;DHT22;49686;51.880;5.632;2023-05-10T07:04:50;10.60;99.90
63537;DHT22;49686;51.880;5.632;2023-05-10T07:07:18;10.70;99.90
63537;DHT22;49686;51.880;5.632;2023-05-10T07:09:45;10.70;99.90
63537;DHT22;49686;51.880;5.632;2023-05-10T07:12:12;10.70;99.90
63537;DHT22;49686;51.880;5.632;2023-05-10T07:14:41;10.80;99.90
63537;DHT22;49686;51.880;5.632;2023-05-10T07:17:08;10.90;99.90
63537;DHT22;49686;51.880;5.632;2023-05-10T07:19:35;11.00;99.90
63537;DHT22;49686;51.880;5.632;2023-05-10T07:22:02;11.20;99.90
63537;DHT22;49686;51.880;5.632;2023-05-10T07:24:31;11.40;99.90
63537;DHT22;49686;51.880;5.632;2023-05-10T07:26:57;11.50;99.90
63537;DHT22;49686;51.880;5.632;2023-05-10T07:29:27;11.70;99.90
63537;DHT22;49686;51.880;5.632;2023-05-10T07:31:54;11.70;99.90
63537;DHT22;49686;51.880;5.632;2023-05-10T07:34:24;11.80;99.90
63537;DHT22;49686;51.880;5.632;2023-05-10T07:36:51;11.80;99.90
63537;DHT22;49686;51.880;5.632;2023-05-10T07:39:18;11.60;99.90
63537;DHT22;49686;51.880;5.632;2023-05-10T07:41:54;11.50;99.90
63537;DHT22;49686;51.880;5.632;2023-05-10T07:44:22;11.50;99.90
63537;DHT22;49686;51.880;5.632;2023-05-10T07:46:49;11.50;99.90
63537;DHT22;49686;51.880;5.632;2023-05-10T07:49:16;11.50;99.90
63537;DHT22;49686;51.880;5.632;2023-05-10T07:51:43;11.40;99.90
63537;DHT22;49686;51.880;5.632;2023-05-10T07:54:10;11.40;99.90
63537;DHT22;49686;51.880;5.632;2023-05-10T07:56:37;11.40;99.90
63537;DHT22;49686;51.880;5.632;2023-05-10T07:59:05;11.30;99.90
63537;DHT22;49686;51.880;5.632;2023-05-10T08:01:33;11.50;99.90
63537;DHT22;49686;51.880;5.632;2023-05-10T08:04:00;11.60;99.90
63537;DHT22;49686;51.880;5.632;2023-05-10T08:06:28;11.60;99.90
63537;DHT22;49686;51.880;5.632;2023-05-10T08:08:54;11.70;99.90
63537;DHT22;49686;51.880;5.632;2023-05-10T08:11:30;11.80;99.90
63537;DHT22;49686;51.880;5.632;2023-05-10T08:14:02;11.80;99.90
63537;DHT22;49686;51.880;5.632;2023-05-10T08:16:30;11.90;99.90
63537;DHT22;49686;51.880;5.632;2023-05-10T08:18:57;11.90;99.90
63537;DHT22;49686;51.880;5.632;2023-05-10T08:21:24;11.90;99.90
63537;DHT22;49686;51.880;5.632;2023-05-10T08:23:53;12.10;99.90
63537;DHT22;49686;51.880;5.632;2023-05-10T08:26:19;12.20;99.90
63537;DHT22;49686;51.880;5.632;2023-05-10T08:28:46;12.30;99.90
63537;DHT22;49686;51.880;5.632;2023-05-10T08:31:13;12.10;99.90
63537;DHT22;49686;51.880;5.632;2023-05-10T08:33:44;12.00;99.90
63537;DHT22;49686;51.880;5.632;2023-05-10T08:36:11;12.10;99.90
63537;DHT22;49686;51.880;5.632;2023-05-10T08:38:40;12.40;99.90
63537;DHT22;49686;51.880;5.632;2023-05-10T08:41:10;12.60;99.90
63537;DHT22;49686;51.880;5.632;2023-05-10T08:43:37;12.60;99.90
63537;DHT22;49686;51.880;5.632;2023-05-10T08:46:05;12.60;99.90
63537;DHT22;49686;51.880;5.632;2023-05-10T08:48:34;12.50;99.90
63537;DHT22;49686;51.880;5.632;2023-05-10T08:51:03;12.50;99.90
63537;DHT22;49686;51.880;5.632;2023-05-10T08:53:33;12.60;99.90
63537;DHT22;49686;51.880;5.632;2023-05-10T08:56:02;13.10;99.90
63537;DHT22;49686;51.880;5.632;2023-05-10T08:58:29;13.60;99.90
63537;DHT22;49686;51.880;5.632;2023-05-10T09:00:56;14.10;99.90
63537;DHT22;49686;51.880;5.632;2023-05-10T09:03:23;14.60;99.90
63537;DHT22;49686;51.880;5.632;2023-05-10T09:05:50;14.90;99.90
63537;DHT22;49686;51.880;5.632;2023-05-10T09:08:18;15.10;99.90
63537;DHT22;49686;51.880;5.632;2023-05-10T09:10:46;15.30;99.90
63537;DHT22;49686;51.880;5.632;2023-05-10T09:13:14;15.50;99.90
63537;DHT22;49686;51.880;5.632;2023-05-10T09:15:45;15.50;99.90
63537;DHT22;49686;51.880;5.632;2023-05-10T09:18:12;15.70;99.90
63537;DHT22;49686;51.880;5.632;2023-05-10T09:20:39;15.60;99.90
63537;DHT22;49686;51.880;5.632;2023-05-10T09:23:05;15.40;99.90
63537;DHT22;49686;51.880;5.632;2023-05-10T09:25:36;14.90;99.90
63537;DHT22;49686;51.880;5.632;2023-05-10T09:28:06;15.10;99.90
63537;DHT22;49686;51.880;5.632;2023-05-10T09:30:33;15.10;99.90
63537;DHT22;49686;51.880;5.632;2023-05-10T09:33:00;15.20;99.90
63537;DHT22;49686;51.880;5.632;2023-05-10T09:35:28;15.20;99.90
63537;DHT22;49686;51.880;5.632;2023-05-10T09:38:00;15.20;99.90
63537;DHT22;49686;51.880;5.632;2023-05-10T09:40:28;15.20;99.90
63537;DHT22;49686;51.880;5.632;2023-05-10T09:42:58;15.10;99.90
63537;DHT22;49686;51.880;5.632;2023-05-10T09:45:27;15.00;99.90
63537;DHT22;49686;51.880;5.632;2023-05-10T09:47:54;14.60;99.90
63537;DHT22;49686;51.880;5.632;2023-05-10T09:50:22;14.70;99.90
63537;DHT22;49686;51.880;5.632;2023-05-10T09:52:50;14.50;99.90
63537;DHT22;49686;51.880;5.632;2023-05-10T09:55:18;14.50;99.90
63537;DHT22;49686;51.880;5.632;2023-05-10T09:57:46;14.50;99.90
63537;DHT22;49686;51.880;5.632;2023-05-10T10:00:18;14.50;99.90
63537;DHT22;49686;51.880;5.632;2023-05-10T10:02:47;14.50;99.90
63537;DHT22;49686;51.880;5.632;2023-05-10T10:05:18;14.40;99.90
63537;DHT22;49686;51.880;5.632;2023-05-10T10:07:45;14.50;99.90
63537;DHT22;49686;51.880;5.632;2023-05-10T10:10:12;14.40;99.90
63537;DHT22;49686;51.880;5.632;2023-05-10T10:12:41;14.40;99.90
63537;DHT22;49686;51.880;5.632;2023-05-10T10:15:09;14.50;99.90
63537;DHT22;49686;51.880;5.632;2023-05-10T10:17:37;14.50;99.90
63537;DHT22;49686;51.880;5.632;2023-05-10T10:20:05;14.50;99.90
63537;DHT22;49686;51.880;5.632;2023-05-10T10:22:33;14.70;99.90
63537;DHT22;49686;51.880;5.632;2023-05-10T10:25:00;15.10;99.90
63537;DHT22;49686;51.880;5.632;2023-05-10T10:27:34;15.70;99.90
63537;DHT22;49686;51.880;5.632;2023-05-10T10:30:09;15.70;99.90
63537;DHT22;49686;51.880;5.632;2023-05-10T10:33:13;16.00;99.90
63537;DHT22;49686;51.880;5.632;2023-05-10T10:35:52;16.00;99.90
63537;DHT22;49686;51.880;5.632;2023-05-10T10:38:20;16.30;99.90
63537;DHT22;49686;51.880;5.632;2023-05-10T10:41:02;16.30;99.90
63537;DHT22;49686;51.880;5.632;2023-05-10T10:43:29;16.50;99.90
63537;DHT22;49686;51.880;5.632;2023-05-10T10:46:12;16.40;99.90
63537;DHT22;49686;51.880;5.632;2023-05-10T10:48:41;16.80;99.90
63537;DHT22;49686;51.880;5.632;2023-05-10T10:51:13;17.70;99.90
63537;DHT22;49686;51.880;5.632;2023-05-10T10:53:41;18.30;99.90
63537;DHT22;49686;51.880;5.632;2023-05-10T10:56:09;18.40;99.90
63537;DHT22;49686;51.880;5.632;2023-05-10T10:58:37;18.20;99.90
63537;DHT22;49686;51.880;5.632;2023-05-10T11:01:12;18.10;99.90
63537;DHT22;49686;51.880;5.632;2023-05-10T11:04:16;17.80;99.90
63537;DHT22;49686;51.880;5.632;2023-05-10T11:06:41;17.50;99.90
63537;DHT22;49686;51.880;5.632;2023-05-10T11:09:10;17.40;99.90
63537;DHT22;49686;51.880;5.632;2023-05-10T11:11:48;17.20;99.90
63537;DHT22;49686;51.880;5.632;2023-05-10T11:14:20;17.20;99.90
63537;DHT22;49686;51.880;5.632;2023-05-10T11:16:46;17.70;99.90
63537;DHT22;49686;51.880;5.632;2023-05-10T11:19:16;17.90;99.90
63537;DHT22;49686;51.880;5.632;2023-05-10T11:21:47;18.10;99.90
63537;DHT22;49686;51.880;5.632;2023-05-10T11:24:17;18.30;99.90
63537;DHT22;49686;51.880;5.632;2023-05-10T11:26:44;18.40;99.90
63537;DHT22;49686;51.880;5.632;2023-05-10T11:29:13;18.30;99.90
63537;DHT22;49686;51.880;5.632;2023-05-10T11:31:43;18.50;99.90
63537;DHT22;49686;51.880;5.632;2023-05-10T11:34:24;18.30;99.90
63537;DHT22;49686;51.880;5.632;2023-05-10T11:36:51;18.40;99.90
63537;DHT22;49686;51.880;5.632;2023-05-10T11:39:18;18.40;99.90
63537;DHT22;49686;51.880;5.632;2023-05-10T11:41:48;18.00;99.90
63537;DHT22;49686;51.880;5.632;2023-05-10T11:44:15;18.20;99.90
63537;DHT22;49686;51.880;5.632;2023-05-10T11:46:41;18.60;99.90
63537;DHT22;49686;51.880;5.632;2023-05-10T11:49:08;18.60;99.90
63537;DHT22;49686;51.880;5.632;2023-05-10T11:51:38;18.60;99.90
63537;DHT22;49686;51.880;5.632;2023-05-10T11:54:06;19.10;99.90
63537;DHT22;49686;51.880;5.632;2023-05-10T11:56:33;18.70;99.90
63537;DHT22;49686;51.880;5.632;2023-05-10T11:59:00;18.60;99.90
63537;DHT22;49686;51.880;5.632;2023-05-10T12:01:28;18.50;99.90
63537;DHT22;49686;51.880;5.632;2023-05-10T12:03:56;18.40;99.90
63537;DHT22;49686;51.880;5.632;2023-05-10T12:06:26;18.50;99.90
63537;DHT22;49686;51.880;5.632;2023-05-10T12:08:55;18.50;99.90
63537;DHT22;49686;51.880;5.632;2023-05-10T12:11:25;18.00;99.90
63537;DHT22;49686;51.880;5.632;2023-05-10T12:13:52;18.20;99.90
63537;DHT22;49686;51.880;5.632;2023-05-10T12:16:20;18.10;99.90
63537;DHT22;49686;51.880;5.632;2023-05-10T12:18:48;17.90;99.90
63537;DHT22;49686;51.880;5.632;2023-05-10T12:21:15;17.30;99.90
63537;DHT22;49686;51.880;5.632;2023-05-10T12:23:42;16.90;99.90
63537;DHT22;49686;51.880;5.632;2023-05-10T12:26:13;16.40;99.90
63537;DHT22;49686;51.880;5.632;2023-05-10T12:28:40;15.70;99.90
63537;DHT22;49686;51.880;5.632;2023-05-10T12:31:07;14.70;99.90
63537;DHT22;49686;51.880;5.632;2023-05-10T12:33:38;14.20;99.90
63537;DHT22;49686;51.880;5.632;2023-05-10T12:36:05;13.80;99.90
63537;DHT22;49686;51.880;5.632;2023-05-10T12:38:34;13.30;99.90
63537;DHT22;49686;51.880;5.632;2023-05-10T12:41:03;13.20;99.90
63537;DHT22;49686;51.880;5.632;2023-05-10T12:43:32;13.20;99.90
63537;DHT22;49686;51.880;5.632;2023-05-10T12:46:04;13.00;99.90
63537;DHT22;49686;51.880;5.632;2023-05-10T12:48:34;12.90;99.90
63537;DHT22;49686;51.880;5.632;2023-05-10T12:51:01;12.80;99.90
63537;DHT22;49686;51.880;5.632;2023-05-10T12:53:30;12.90;99.90
63537;DHT22;49686;51.880;5.632;2023-05-10T12:55:58;12.90;99.90
63537;DHT22;49686;51.880;5.632;2023-05-10T12:58:25;13.00;99.90
63537;DHT22;49686;51.880;5.632;2023-05-10T13:01:02;13.00;99.90
63537;DHT22;49686;51.880;5.632;2023-05-10T13:03:29;12.90;99.90
63537;DHT22;49686;51.880;5.632;2023-05-10T13:05:56;12.90;99.90
63537;DHT22;49686;51.880;5.632;2023-05-10T13:08:26;12.80;99.90
63537;DHT22;49686;51.880;5.632;2023-05-10T13:10:53;12.80;99.90
63537;DHT22;49686;51.880;5.632;2023-05-10T13:13:20;12.90;99.90
63537;DHT22;49686;51.880;5.632;2023-05-10T13:15:53;12.80;99.90
63537;DHT22;49686;51.880;5.632;2023-05-10T13:18:28;12.90;99.90
63537;DHT22;49686;51.880;5.632;2023-05-10T13:20:55;12.90;99.90
63537;DHT22;49686;51.880;5.632;2023-05-10T13:23:21;13.00;99.90
63537;DHT22;49686;51.880;5.632;2023-05-10T13:25:50;13.10;99.90
63537;DHT22;49686;51.880;5.632;2023-05-10T13:28:17;13.20;99.90
63537;DHT22;49686;51.880;5.632;2023-05-10T13:30:43;13.30;99.90
63537;DHT22;49686;51.880;5.632;2023-05-10T13:33:10;13.40;99.90
63537;DHT22;49686;51.880;5.632;2023-05-10T13:35:38;13.60;99.90
63537;DHT22;49686;51.880;5.632;2023-05-10T13:38:05;13.70;99.90
63537;DHT22;49686;51.880;5.632;2023-05-10T13:40:32;13.90;99.90
63537;DHT22;49686;51.880;5.632;2023-05-10T13:42:59;14.00;99.90
63537;DHT22;49686;51.880;5.632;2023-05-10T13:45:26;13.90;99.90
63537;DHT22;49686;51.880;5.632;2023-05-10T13:47:53;13.90;99.90
63537;DHT22;49686;51.880;5.632;2023-05-10T13:50:20;13.70;99.90
63537;DHT22;49686;51.880;5.632;2023-05-10T13:52:48;13.40;99.90
63537;DHT22;49686;51.880;5.632;2023-05-10T13:55:18;13.20;99.90
63537;DHT22;49686;51.880;5.632;2023-05-10T13:57:46;13.20;99.90
63537;DHT22;49686;51.880;5.632;2023-05-10T14:00:14;12.80;99.90
63537;DHT22;49686;51.880;5.632;2023-05-10T14:02:41;12.90;99.90
63537;DHT22;49686;51.880;5.632;2023-05-10T14:05:10;12.90;99.90
63537;DHT22;49686;51.880;5.632;2023-05-10T14:07:38;12.90;99.90
63537;DHT22;49686;51.880;5.632;2023-05-10T14:10:07;12.90;99.90
63537;DHT22;49686;51.880;5.632;2023-05-10T14:12:33;12.80;99.90
63537;DHT22;49686;51.880;5.632;2023-05-10T14:15:00;12.60;99.90
63537;DHT22;49686;51.880;5.632;2023-05-10T14:17:27;12.50;99.90
63537;DHT22;49686;51.880;5.632;2023-05-10T14:19:54;12.60;99.90
63537;DHT22;49686;51.880;5.632;2023-05-10T14:22:21;12.70;99.90
63537;DHT22;49686;51.880;5.632;2023-05-10T14:24:51;12.90;99.90
63537;DHT22;49686;51.880;5.632;2023-05-10T14:27:22;13.10;99.90
63537;DHT22;49686;51.880;5.632;2023-05-10T14:29:48;13.30;99.90
63537;DHT22;49686;51.880;5.632;2023-05-10T14:32:18;13.40;99.90
63537;DHT22;49686;51.880;5.632;2023-05-10T14:34:45;13.40;99.90
63537;DHT22;49686;51.880;5.632;2023-05-10T14:37:13;13.50;99.90
63537;DHT22;49686;51.880;5.632;2023-05-10T14:39:40;13.60;99.90
63537;DHT22;49686;51.880;5.632;2023-05-10T14:42:07;13.50;99.90
63537;DHT22;49686;51.880;5.632;2023-05-10T14:44:36;13.60;99.90
63537;DHT22;49686;51.880;5.632;2023-05-10T14:47:03;13.70;99.90
63537;DHT22;49686;51.880;5.632;2023-05-10T14:49:33;13.80;99.90
63537;DHT22;49686;51.880;5.632;2023-05-10T14:52:00;13.50;99.90
63537;DHT22;49686;51.880;5.632;2023-05-10T14:54:32;13.60;99.90
63537;DHT22;49686;51.880;5.632;2023-05-10T14:57:03;13.70;99.90
63537;DHT22;49686;51.880;5.632;2023-05-10T14:59:32;13.90;99.90
63537;DHT22;49686;51.880;5.632;2023-05-10T15:02:00;14.00;99.90
63537;DHT22;49686;51.880;5.632;2023-05-10T15:04:28;14.20;99.90
63537;DHT22;49686;51.880;5.632;2023-05-10T15:06:55;14.20;99.90
63537;DHT22;49686;51.880;5.632;2023-05-10T15:09:24;14.40;99.90
63537;DHT22;49686;51.880;5.632;2023-05-10T15:11:51;14.40;99.90
63537;DHT22;49686;51.880;5.632;2023-05-10T15:14:18;14.60;99.90
63537;DHT22;49686;51.880;5.632;2023-05-10T15:16:45;14.90;99.90
63537;DHT22;49686;51.880;5.632;2023-05-10T15:19:13;15.10;99.90
63537;DHT22;49686;51.880;5.632;2023-05-10T15:21:39;15.30;99.90
63537;DHT22;49686;51.880;5.632;2023-05-10T15:24:08;15.20;99.90
63537;DHT22;49686;51.880;5.632;2023-05-10T15:26:35;15.40;99.90
63537;DHT22;49686;51.880;5.632;2023-05-10T15:29:02;15.40;99.90
63537;DHT22;49686;51.880;5.632;2023-05-10T15:31:32;15.40;99.90
63537;DHT22;49686;51.880;5.632;2023-05-10T15:34:00;15.40;99.90
63537;DHT22;49686;51.880;5.632;2023-05-10T15:36:39;15.40;99.90
63537;DHT22;49686;51.880;5.632;2023-05-10T15:39:08;15.00;99.90
63537;DHT22;49686;51.880;5.632;2023-05-10T15:41:35;14.80;99.90
63537;DHT22;49686;51.880;5.632;2023-05-10T15:44:02;14.60;99.90
63537;DHT22;49686;51.880;5.632;2023-05-10T15:46:37;14.60;99.90